sensor_id;sensor_type;location;lat;lon;timestamp;P1;durP1;ratioP1;P2;durP2;ratioP2
8640;SDS011;4358;42.100;25.222;2023-05-23T00:01:05;4.67;;;4.27;;
8640;SDS011;4358;42.100;25.222;2023-05-23T00:03:32;6.57;;;5.10;;
8640;SDS011;4358;42.100;25.222;2023-05-23T00:05:59;5.53;;;4.90;;
8640;SDS011;4358;42.100;25.222;2023-05-23T00:08:26;5.37;;;4.87;;
8640;SDS011;4358;42.100;25.222;2023-05-23T00:10:53;5.40;;;4.90;;
8640;SDS011;4358;42.100;25.222;2023-05-23T00:13:20;5.33;;;4.80;;
8640;SDS011;4358;42.100;25.222;2023-05-23T00:15:47;5.13;;;4.73;;
8640;SDS011;4358;42.100;25.222;2023-05-23T00:18:15;5.57;;;5.03;;
8640;SDS011;4358;42.100;25.222;2023-05-23T00:20:42;6.63;;;5.30;;
8640;SDS011;4358;42.100;25.222;2023-05-23T00:23:11;5.97;;;5.30;;
8640;SDS011;4358;42.100;25.222;2023-05-23T00:25:43;6.20;;;5.60;;
8640;SDS011;4358;42.100;25.222;2023-05-23T00:28:12;6.47;;;5.47;;
8640;SDS011;4358;42.100;25.222;2023-05-23T00:30:40;5.80;;;5.30;;
8640;SDS011;4358;42.100;25.222;2023-05-23T00:33:06;6.33;;;5.43;;
8640;SDS011;4358;42.100;25.222;2023-05-23T00:35:35;6.40;;;5.80;;
8640;SDS011;4358;42.100;25.222;2023-05-23T00:38:01;7.40;;;6.50;;
8640;SDS011;4358;42.100;25.222;2023-05-23T00:40:28;10.30;;;7.87;;
8640;SDS011;4358;42.100;25.222;2023-05-23T00:42:55;10.00;;;8.13;;
8640;SDS011;4358;42.100;25.222;2023-05-23T00:45:22;9.30;;;8.03;;
8640;SDS011;4358;42.100;25.222;2023-05-23T00:47:49;9.40;;;8.50;;
8640;SDS011;4358;42.100;25.222;2023-05-23T00:50:17;10.27;;;9.30;;
8640;SDS011;4358;42.100;25.222;2023-05-23T00:52:46;10.07;;;8.93;;
8640;SDS011;4358;42.100;25.222;2023-05-23T00:55:14;9.20;;;6.40;;
8640;SDS011;4358;42.100;25.222;2023-05-23T00:57:41;8.33;;;5.73;;
8640;SDS011;4358;42.100;25.222;2023-05-23T01:00:09;5.93;;;5.40;;
8640;SDS011;4358;42.100;25.222;2023-05-23T01:02:38;6.03;;;5.43;;
8640;SDS011;4358;42.100;25.222;2023-05-23T01:05:08;5.80;;;5.20;;
8640;SDS011;4358;42.100;25.222;2023-05-23T01:07:35;5.97;;;5.37;;
8640;SDS011;4358;42.100;25.222;2023-05-23T01:10:04;6.67;;;6.00;;
8640;SDS011;4358;42.100;25.222;2023-05-23T01:12:33;7.50;;;5.97;;
8640;SDS011;4358;42.100;25.222;2023-05-23T01:15:07;6.00;;;5.50;;
8640;SDS011;4358;42.100;25.222;2023-05-23T01:17:38;6.43;;;5.53;;
8640;SDS011;4358;42.100;25.222;2023-05-23T01:20:11;6.03;;;5.43;;
8640;SDS011;4358;42.100;25.222;2023-05-23T01:22:48;6.70;;;6.00;;
8640;SDS011;4358;42.100;25.222;2023-05-23T01:25:43;10.07;;;5.73;;
8640;SDS011;4358;42.100;25.222;2023-05-23T01:28:20;6.53;;;5.60;;
8640;SDS011;4358;42.100;25.222;2023-05-23T01:30:49;12.17;;;6.03;;
8640;SDS011;4358;42.100;25.222;2023-05-23T01:33:18;7.17;;;5.70;;
8640;SDS011;4358;42.100;25.222;2023-05-23T01:35:46;9.80;;;5.40;;
8640;SDS011;4358;42.100;25.222;2023-05-23T01:38:13;6.23;;;5.63;;
8640;SDS011;4358;42.100;25.222;2023-05-23T01:40:40;7.17;;;5.47;;
8640;SDS011;4358;42.100;25.222;2023-05-23T01:43:06;7.50;;;6.17;;
8640;SDS011;4358;42.100;25.222;2023-05-23T01:45:35;7.83;;;6.30;;
8640;SDS011;4358;42.100;25.222;2023-05-23T01:48:02;7.70;;;5.73;;
8640;SDS011;4358;42.100;25.222;2023-05-23T01:50:31;6.93;;;5.53;;
8640;SDS011;4358;42.100;25.222;2023-05-23T01:52:58;6.97;;;6.37;;
8640;SDS011;4358;42.100;25.222;2023-05-23T01:55:26;8.07;;;6.23;;
8640;SDS011;4358;42.100;25.222;2023-05-23T01:57:54;6.50;;;5.90;;
8640;SDS011;4358;42.100;25.222;2023-05-23T02:00:22;5.90;;;5.33;;
8640;SDS011;4358;42.100;25.222;2023-05-23T02:02:51;7.90;;;5.80;;
8640;SDS011;4358;42.100;25.222;2023-05-23T02:05:18;6.37;;;5.77;;
8640;SDS011;4358;42.100;25.222;2023-05-23T02:07:44;9.83;;;5.80;;
8640;SDS011;4358;42.100;25.222;2023-05-23T02:10:11;7.47;;;6.10;;
8640;SDS011;4358;42.100;25.222;2023-05-23T02:12:38;9.10;;;5.87;;
8640;SDS011;4358;42.100;25.222;2023-05-23T02:15:06;7.03;;;6.33;;
8640;SDS011;4358;42.100;25.222;2023-05-23T02:17:33;6.90;;;6.20;;
8640;SDS011;4358;42.100;25.222;2023-05-23T02:20:01;6.07;;;5.47;;
8640;SDS011;4358;42.100;25.222;2023-05-23T02:22:29;6.37;;;5.67;;
8640;SDS011;4358;42.100;25.222;2023-05-23T02:24:55;6.53;;;4.90;;
8640;SDS011;4358;42.100;25.222;2023-05-23T02:27:22;6.63;;;4.37;;
8640;SDS011;4358;42.100;25.222;2023-05-23T02:29:49;8.17;;;5.00;;
8640;SDS011;4358;42.100;25.222;2023-05-23T02:32:16;4.93;;;4.27;;
8640;SDS011;4358;42.100;25.222;2023-05-23T02:34:43;8.03;;;5.30;;
8640;SDS011;4358;42.100;25.222;2023-05-23T02:37:12;5.53;;;4.97;;
8640;SDS011;4358;42.100;25.222;2023-05-23T02:39:39;5.83;;;5.23;;
8640;SDS011;4358;42.100;25.222;2023-05-23T02:42:06;5.87;;;4.87;;
8640;SDS011;4358;42.100;25.222;2023-05-23T02:44:33;5.13;;;4.73;;
8640;SDS011;4358;42.100;25.222;2023-05-23T02:46:59;5.20;;;4.70;;
8640;SDS011;4358;42.100;25.222;2023-05-23T02:49:26;6.43;;;5.10;;
8640;SDS011;4358;42.100;25.222;2023-05-23T02:51:53;8.33;;;4.87;;
8640;SDS011;4358;42.100;25.222;2023-05-23T02:54:21;5.53;;;5.03;;
8640;SDS011;4358;42.100;25.222;2023-05-23T02:56:48;5.63;;;5.13;;
8640;SDS011;4358;42.100;25.222;2023-05-23T02:59:16;7.73;;;4.93;;
8640;SDS011;4358;42.100;25.222;2023-05-23T03:01:43;4.87;;;4.47;;
8640;SDS011;4358;42.100;25.222;2023-05-23T03:04:10;5.80;;;5.13;;
8640;SDS011;4358;42.100;25.222;2023-05-23T03:06:37;6.27;;;5.67;;
8640;SDS011;4358;42.100;25.222;2023-05-23T03:09:06;6.10;;;5.03;;
8640;SDS011;4358;42.100;25.222;2023-05-23T03:11:35;10.23;;;5.10;;
8640;SDS011;4358;42.100;25.222;2023-05-23T03:14:02;7.27;;;5.20;;
8640;SDS011;4358;42.100;25.222;2023-05-23T03:16:29;6.87;;;5.30;;
8640;SDS011;4358;42.100;25.222;2023-05-23T03:18:55;5.67;;;5.17;;
8640;SDS011;4358;42.100;25.222;2023-05-23T03:21:22;4.70;;;4.30;;
8640;SDS011;4358;42.100;25.222;2023-05-23T03:23:50;5.03;;;4.53;;
8640;SDS011;4358;42.100;25.222;2023-05-23T03:26:16;6.80;;;4.53;;
8640;SDS011;4358;42.100;25.222;2023-05-23T03:28:45;5.00;;;4.47;;
8640;SDS011;4358;42.100;25.222;2023-05-23T03:31:11;4.50;;;4.10;;
8640;SDS011;4358;42.100;25.222;2023-05-23T03:33:38;7.47;;;4.37;;
8640;SDS011;4358;42.100;25.222;2023-05-23T03:36:05;4.20;;;3.80;;
8640;SDS011;4358;42.100;25.222;2023-05-23T03:38:32;4.63;;;4.23;;
8640;SDS011;4358;42.100;25.222;2023-05-23T03:40:59;5.47;;;4.00;;
8640;SDS011;4358;42.100;25.222;2023-05-23T03:43:26;4.77;;;4.27;;
8640;SDS011;4358;42.100;25.222;2023-05-23T03:45:54;4.20;;;3.80;;
8640;SDS011;4358;42.100;25.222;2023-05-23T03:48:21;5.00;;;4.50;;
8640;SDS011;4358;42.100;25.222;2023-05-23T03:50:48;4.37;;;3.80;;
8640;SDS011;4358;42.100;25.222;2023-05-23T03:53:15;4.37;;;3.97;;
8640;SDS011;4358;42.100;25.222;2023-05-23T03:55:41;4.63;;;3.33;;
8640;SDS011;4358;42.100;25.222;2023-05-23T03:58:08;4.37;;;3.63;;
8640;SDS011;4358;42.100;25.222;2023-05-23T04:00:36;4.67;;;4.20;;
8640;SDS011;4358;42.100;25.222;2023-05-23T04:03:04;7.23;;;4.23;;
8640;SDS011;4358;42.100;25.222;2023-05-23T04:05:32;10.20;;;3.97;;
8640;SDS011;4358;42.100;25.222;2023-05-23T04:07:59;10.23;;;3.87;;
8640;SDS011;4358;42.100;25.222;2023-05-23T04:10:26;4.20;;;3.80;;
8640;SDS011;4358;42.100;25.222;2023-05-23T04:12:53;3.60;;;3.30;;
8640;SDS011;4358;42.100;25.222;2023-05-23T04:15:21;5.00;;;3.43;;
8640;SDS011;4358;42.100;25.222;2023-05-23T04:17:48;5.00;;;3.63;;
8640;SDS011;4358;42.100;25.222;2023-05-23T04:20:17;9.30;;;3.53;;
8640;SDS011;4358;42.100;25.222;2023-05-23T04:22:43;5.03;;;3.33;;
8640;SDS011;4358;42.100;25.222;2023-05-23T04:25:10;4.37;;;3.17;;
8640;SDS011;4358;42.100;25.222;2023-05-23T04:27:37;3.90;;;3.53;;
8640;SDS011;4358;42.100;25.222;2023-05-23T04:30:05;4.30;;;3.60;;
8640;SDS011;4358;42.100;25.222;2023-05-23T04:32:34;4.00;;;3.60;;
8640;SDS011;4358;42.100;25.222;2023-05-23T04:35:02;5.10;;;3.83;;
8640;SDS011;4358;42.100;25.222;2023-05-23T04:37:31;6.30;;;3.70;;
8640;SDS011;4358;42.100;25.222;2023-05-23T04:39:58;3.77;;;3.40;;
8640;SDS011;4358;42.100;25.222;2023-05-23T04:42:25;4.43;;;3.80;;
8640;SDS011;4358;42.100;25.222;2023-05-23T04:44:53;4.27;;;3.87;;
8640;SDS011;4358;42.100;25.222;2023-05-23T04:47:21;4.73;;;3.70;;
8640;SDS011;4358;42.100;25.222;2023-05-23T04:49:49;4.20;;;3.80;;
8640;SDS011;4358;42.100;25.222;2023-05-23T04:52:18;4.53;;;3.90;;
8640;SDS011;4358;42.100;25.222;2023-05-23T04:54:46;4.30;;;3.37;;
8640;SDS011;4358;42.100;25.222;2023-05-23T04:57:13;3.43;;;3.13;;
8640;SDS011;4358;42.100;25.222;2023-05-23T04:59:41;4.97;;;3.67;;
8640;SDS011;4358;42.100;25.222;2023-05-23T05:02:07;3.90;;;3.60;;
8640;SDS011;4358;42.100;25.222;2023-05-23T05:04:34;4.20;;;3.50;;
8640;SDS011;4358;42.100;25.222;2023-05-23T05:07:01;3.80;;;3.50;;
8640;SDS011;4358;42.100;25.222;2023-05-23T05:09:28;4.30;;;3.90;;
8640;SDS011;4358;42.100;25.222;2023-05-23T05:11:57;4.73;;;4.10;;
8640;SDS011;4358;42.100;25.222;2023-05-23T05:14:24;7.77;;;6.97;;
8640;SDS011;4358;42.100;25.222;2023-05-23T05:16:52;3.20;;;2.90;;
8640;SDS011;4358;42.100;25.222;2023-05-23T05:19:21;3.73;;;3.10;;
8640;SDS011;4358;42.100;25.222;2023-05-23T05:21:48;3.50;;;3.20;;
8640;SDS011;4358;42.100;25.222;2023-05-23T05:24:15;3.67;;;3.37;;
8640;SDS011;4358;42.100;25.222;2023-05-23T05:26:45;3.80;;;3.40;;
8640;SDS011;4358;42.100;25.222;2023-05-23T05:29:14;5.50;;;3.30;;
8640;SDS011;4358;42.100;25.222;2023-05-23T05:31:41;6.77;;;3.40;;
8640;SDS011;4358;42.100;25.222;2023-05-23T05:34:09;6.63;;;3.10;;
8640;SDS011;4358;42.100;25.222;2023-05-23T05:36:36;4.60;;;4.10;;
8640;SDS011;4358;42.100;25.222;2023-05-23T05:39:10;4.70;;;3.30;;
8640;SDS011;4358;42.100;25.222;2023-05-23T05:41:37;4.87;;;3.73;;
8640;SDS011;4358;42.100;25.222;2023-05-23T05:44:04;4.80;;;3.60;;
8640;SDS011;4358;42.100;25.222;2023-05-23T05:46:32;5.47;;;3.90;;
8640;SDS011;4358;42.100;25.222;2023-05-23T05:48:59;5.03;;;4.53;;
8640;SDS011;4358;42.100;25.222;2023-05-23T05:51:26;5.53;;;3.83;;
8640;SDS011;4358;42.100;25.222;2023-05-23T05:53:53;4.10;;;3.70;;
8640;SDS011;4358;42.100;25.222;2023-05-23T05:56:20;11.07;;;4.03;;
8640;SDS011;4358;42.100;25.222;2023-05-23T05:58:47;5.20;;;3.60;;
8640;SDS011;4358;42.100;25.222;2023-05-23T06:01:14;6.00;;;3.57;;
8640;SDS011;4358;42.100;25.222;2023-05-23T06:03:43;8.40;;;3.70;;
8640;SDS011;4358;42.100;25.222;2023-05-23T06:06:10;5.63;;;3.60;;
8640;SDS011;4358;42.100;25.222;2023-05-23T06:08:37;3.97;;;3.57;;
8640;SDS011;4358;42.100;25.222;2023-05-23T06:11:05;5.00;;;3.50;;
8640;SDS011;4358;42.100;25.222;2023-05-23T06:13:31;4.53;;;3.47;;
8640;SDS011;4358;42.100;25.222;2023-05-23T06:15:58;3.43;;;3.13;;
8640;SDS011;4358;42.100;25.222;2023-05-23T06:18:25;3.87;;;3.57;;
8640;SDS011;4358;42.100;25.222;2023-05-23T06:20:53;4.73;;;3.13;;
8640;SDS011;4358;42.100;25.222;2023-05-23T06:23:20;3.73;;;3.40;;
8640;SDS011;4358;42.100;25.222;2023-05-23T06:25:47;3.87;;;3.57;;
8640;SDS011;4358;42.100;25.222;2023-05-23T06:28:13;5.50;;;3.63;;
8640;SDS011;4358;42.100;25.222;2023-05-23T06:30:40;3.60;;;3.10;;
8640;SDS011;4358;42.100;25.222;2023-05-23T06:33:07;4.60;;;3.17;;
8640;SDS011;4358;42.100;25.222;2023-05-23T06:35:34;4.50;;;3.70;;
8640;SDS011;4358;42.100;25.222;2023-05-23T06:38:02;3.57;;;3.23;;
8640;SDS011;4358;42.100;25.222;2023-05-23T06:40:29;3.67;;;3.30;;
8640;SDS011;4358;42.100;25.222;2023-05-23T06:42:56;3.50;;;3.20;;
8640;SDS011;4358;42.100;25.222;2023-05-23T06:45:23;3.47;;;3.17;;
8640;SDS011;4358;42.100;25.222;2023-05-23T06:47:50;5.17;;;3.10;;
8640;SDS011;4358;42.100;25.222;2023-05-23T06:50:16;3.73;;;3.40;;
8640;SDS011;4358;42.100;25.222;2023-05-23T06:52:44;3.53;;;3.20;;
8640;SDS011;4358;42.100;25.222;2023-05-23T06:55:13;3.87;;;3.30;;
8640;SDS011;4358;42.100;25.222;2023-05-23T06:57:43;3.37;;;3.07;;
8640;SDS011;4358;42.100;25.222;2023-05-23T07:00:10;4.00;;;3.60;;
8640;SDS011;4358;42.100;25.222;2023-05-23T07:02:39;5.00;;;3.70;;
8640;SDS011;4358;42.100;25.222;2023-05-23T07:05:06;4.67;;;3.43;;
8640;SDS011;4358;42.100;25.222;2023-05-23T07:07:33;5.03;;;4.17;;
8640;SDS011;4358;42.100;25.222;2023-05-23T07:10:00;4.97;;;3.40;;
8640;SDS011;4358;42.100;25.222;2023-05-23T07:12:28;3.60;;;3.30;;
8640;SDS011;4358;42.100;25.222;2023-05-23T07:14:55;3.63;;;3.07;;
8640;SDS011;4358;42.100;25.222;2023-05-23T07:17:22;4.50;;;3.73;;
8640;SDS011;4358;42.100;25.222;2023-05-23T07:19:48;4.13;;;3.73;;
8640;SDS011;4358;42.100;25.222;2023-05-23T07:22:15;4.17;;;3.43;;
8640;SDS011;4358;42.100;25.222;2023-05-23T07:24:42;3.87;;;3.57;;
8640;SDS011;4358;42.100;25.222;2023-05-23T07:27:09;6.23;;;4.00;;
8640;SDS011;4358;42.100;25.222;2023-05-23T07:29:37;4.17;;;3.77;;
8640;SDS011;4358;42.100;25.222;2023-05-23T07:32:04;4.13;;;3.60;;
8640;SDS011;4358;42.100;25.222;2023-05-23T07:34:31;3.70;;;3.37;;
8640;SDS011;4358;42.100;25.222;2023-05-23T07:36:58;5.57;;;3.63;;
8640;SDS011;4358;42.100;25.222;2023-05-23T07:39:25;4.10;;;3.70;;
8640;SDS011;4358;42.100;25.222;2023-05-23T07:41:52;4.70;;;3.80;;
8640;SDS011;4358;42.100;25.222;2023-05-23T07:44:18;4.00;;;3.70;;
8640;SDS011;4358;42.100;25.222;2023-05-23T07:46:47;5.10;;;4.00;;
8640;SDS011;4358;42.100;25.222;2023-05-23T07:49:14;5.43;;;4.13;;
8640;SDS011;4358;42.100;25.222;2023-05-23T07:51:41;4.77;;;4.30;;
8640;SDS011;4358;42.100;25.222;2023-05-23T07:54:08;5.97;;;4.53;;
8640;SDS011;4358;42.100;25.222;2023-05-23T07:56:34;3.70;;;3.40;;
8640;SDS011;4358;42.100;25.222;2023-05-23T07:59:03;5.33;;;4.03;;
8640;SDS011;4358;42.100;25.222;2023-05-23T08:01:30;4.80;;;4.33;;
8640;SDS011;4358;42.100;25.222;2023-05-23T08:03:58;5.07;;;4.57;;
8640;SDS011;4358;42.100;25.222;2023-05-23T08:06:25;5.13;;;3.73;;
8640;SDS011;4358;42.100;25.222;2023-05-23T08:08:52;4.63;;;4.13;;
8640;SDS011;4358;42.100;25.222;2023-05-23T08:11:18;5.73;;;3.40;;
8640;SDS011;4358;42.100;25.222;2023-05-23T08:13:45;3.83;;;3.53;;
8640;SDS011;4358;42.100;25.222;2023-05-23T08:16:12;3.83;;;3.53;;
8640;SDS011;4358;42.100;25.222;2023-05-23T08:18:39;4.67;;;3.90;;
8640;SDS011;4358;42.100;25.222;2023-05-23T08:21:07;4.67;;;3.80;;
8640;SDS011;4358;42.100;25.222;2023-05-23T08:23:34;4.40;;;3.80;;
8640;SDS011;4358;42.100;25.222;2023-05-23T08:26:01;4.47;;;3.97;;
8640;SDS011;4358;42.100;25.222;2023-05-23T08:28:27;4.20;;;3.57;;
8640;SDS011;4358;42.100;25.222;2023-05-23T08:30:54;4.80;;;3.93;;
8640;SDS011;4358;42.100;25.222;2023-05-23T08:33:22;3.83;;;3.37;;
8640;SDS011;4358;42.100;25.222;2023-05-23T08:35:49;3.70;;;3.40;;
8640;SDS011;4358;42.100;25.222;2023-05-23T08:38:17;4.57;;;3.97;;
8640;SDS011;4358;42.100;25.222;2023-05-23T08:40:48;5.80;;;3.50;;
8640;SDS011;4358;42.100;25.222;2023-05-23T08:43:16;7.20;;;3.47;;
8640;SDS011;4358;42.100;25.222;2023-05-23T08:45:43;5.60;;;3.20;;
8640;SDS011;4358;42.100;25.222;2023-05-23T08:48:12;3.93;;;3.27;;
8640;SDS011;4358;42.100;25.222;2023-05-23T08:50:40;3.80;;;3.00;;
8640;SDS011;4358;42.100;25.222;2023-05-23T08:53:11;5.27;;;3.00;;
8640;SDS011;4358;42.100;25.222;2023-05-23T08:55:45;4.30;;;3.10;;
8640;SDS011;4358;42.100;25.222;2023-05-23T08:58:13;6.43;;;3.30;;
8640;SDS011;4358;42.100;25.222;2023-05-23T09:00:41;3.60;;;3.00;;
8640;SDS011;4358;42.100;25.222;2023-05-23T09:03:08;3.03;;;2.80;;
8640;SDS011;4358;42.100;25.222;2023-05-23T09:05:36;3.20;;;2.90;;
8640;SDS011;4358;42.100;25.222;2023-05-23T09:08:03;5.87;;;3.27;;
8640;SDS011;4358;42.100;25.222;2023-05-23T09:10:30;3.70;;;3.17;;
8640;SDS011;4358;42.100;25.222;2023-05-23T09:12:58;4.17;;;3.10;;
8640;SDS011;4358;42.100;25.222;2023-05-23T09:15:25;4.43;;;3.10;;
8640;SDS011;4358;42.100;25.222;2023-05-23T09:17:57;2.80;;;2.60;;
8640;SDS011;4358;42.100;25.222;2023-05-23T09:20:26;6.20;;;3.13;;
8640;SDS011;4358;42.100;25.222;2023-05-23T09:22:53;3.20;;;2.90;;
8640;SDS011;4358;42.100;25.222;2023-05-23T09:25:21;3.30;;;3.00;;
8640;SDS011;4358;42.100;25.222;2023-05-23T09:27:50;3.40;;;3.10;;
8640;SDS011;4358;42.100;25.222;2023-05-23T09:30:20;4.07;;;3.00;;
8640;SDS011;4358;42.100;25.222;2023-05-23T09:32:57;3.90;;;3.33;;
8640;SDS011;4358;42.100;25.222;2023-05-23T09:35:25;3.40;;;3.00;;
8640;SDS011;4358;42.100;25.222;2023-05-23T09:37:55;4.07;;;3.10;;
8640;SDS011;4358;42.100;25.222;2023-05-23T09:40:28;3.50;;;3.20;;
8640;SDS011;4358;42.100;25.222;2023-05-23T09:43:00;4.33;;;3.70;;
8640;SDS011;4358;42.100;25.222;2023-05-23T09:45:30;4.40;;;4.00;;
8640;SDS011;4358;42.100;25.222;2023-05-23T09:47:58;4.93;;;3.30;;
8640;SDS011;4358;42.100;25.222;2023-05-23T09:50:29;3.70;;;3.00;;
8640;SDS011;4358;42.100;25.222;2023-05-23T09:52:57;4.60;;;3.30;;
8640;SDS011;4358;42.100;25.222;2023-05-23T09:55:24;3.50;;;2.87;;
8640;SDS011;4358;42.100;25.222;2023-05-23T09:57:52;6.23;;;3.13;;
8640;SDS011;4358;42.100;25.222;2023-05-23T10:00:20;3.40;;;3.10;;
8640;SDS011;4358;42.100;25.222;2023-05-23T10:02:54;3.43;;;3.13;;
8640;SDS011;4358;42.100;25.222;2023-05-23T10:05:29;4.57;;;3.10;;
8640;SDS011;4358;42.100;25.222;2023-05-23T10:07:59;4.17;;;3.73;;
8640;SDS011;4358;42.100;25.222;2023-05-23T10:10:32;5.37;;;4.87;;
8640;SDS011;4358;42.100;25.222;2023-05-23T10:13:14;7.63;;;4.07;;
8640;SDS011;4358;42.100;25.222;2023-05-23T10:15:41;5.20;;;4.00;;
8640;SDS011;4358;42.100;25.222;2023-05-23T10:18:11;4.37;;;3.73;;
8640;SDS011;4358;42.100;25.222;2023-05-23T10:20:46;4.77;;;3.80;;
8640;SDS011;4358;42.100;25.222;2023-05-23T10:23:14;5.23;;;3.47;;
8640;SDS011;4358;42.100;25.222;2023-05-23T10:28:09;3.70;;;3.40;;
8640;SDS011;4358;42.100;25.222;2023-05-23T10:30:38;4.60;;;4.00;;
8640;SDS011;4358;42.100;25.222;2023-05-23T10:33:05;6.50;;;4.10;;
8640;SDS011;4358;42.100;25.222;2023-05-23T10:35:40;12.47;;;5.47;;
8640;SDS011;4358;42.100;25.222;2023-05-23T10:38:16;10.20;;;4.50;;
8640;SDS011;4358;42.100;25.222;2023-05-23T10:40:56;5.60;;;4.53;;
8640;SDS011;4358;42.100;25.222;2023-05-23T10:43:28;7.07;;;4.57;;
8640;SDS011;4358;42.100;25.222;2023-05-23T10:46:00;7.47;;;4.50;;
8640;SDS011;4358;42.100;25.222;2023-05-23T10:48:33;4.90;;;4.43;;
8640;SDS011;4358;42.100;25.222;2023-05-23T10:51:05;8.27;;;3.77;;
8640;SDS011;4358;42.100;25.222;2023-05-23T10:53:35;5.03;;;4.53;;
8640;SDS011;4358;42.100;25.222;2023-05-23T10:56:06;4.03;;;3.43;;
8640;SDS011;4358;42.100;25.222;2023-05-23T10:58:34;4.67;;;4.27;;
8640;SDS011;4358;42.100;25.222;2023-05-23T11:01:05;5.30;;;3.73;;
8640;SDS011;4358;42.100;25.222;2023-05-23T11:03:34;4.23;;;3.83;;
8640;SDS011;4358;42.100;25.222;2023-05-23T11:06:02;5.67;;;4.10;;
8640;SDS011;4358;42.100;25.222;2023-05-23T11:08:37;5.77;;;4.40;;
8640;SDS011;4358;42.100;25.222;2023-05-23T11:11:06;4.53;;;3.83;;
8640;SDS011;4358;42.100;25.222;2023-05-23T11:13:53;6.13;;;3.30;;
8640;SDS011;4358;42.100;25.222;2023-05-23T11:16:28;5.40;;;3.73;;
8640;SDS011;4358;42.100;25.222;2023-05-23T11:21:49;4.60;;;3.90;;
8640;SDS011;4358;42.100;25.222;2023-05-23T11:24:20;6.33;;;3.67;;
8640;SDS011;4358;42.100;25.222;2023-05-23T11:26:50;4.80;;;3.77;;
8640;SDS011;4358;42.100;25.222;2023-05-23T11:29:19;4.30;;;3.90;;
8640;SDS011;4358;42.100;25.222;2023-05-23T11:31:46;4.33;;;3.93;;
8640;SDS011;4358;42.100;25.222;2023-05-23T11:34:12;4.23;;;3.57;;
8640;SDS011;4358;42.100;25.222;2023-05-23T11:36:40;4.63;;;3.03;;
8640;SDS011;4358;42.100;25.222;2023-05-23T11:39:06;4.27;;;3.43;;
8640;SDS011;4358;42.100;25.222;2023-05-23T11:41:35;4.17;;;3.40;;
8640;SDS011;4358;42.100;25.222;2023-05-23T11:44:09;3.50;;;3.20;;
8640;SDS011;4358;42.100;25.222;2023-05-23T11:46:37;6.53;;;3.33;;
8640;SDS011;4358;42.100;25.222;2023-05-23T11:49:09;5.07;;;3.17;;
8640;SDS011;4358;42.100;25.222;2023-05-23T11:51:36;3.20;;;2.90;;
8640;SDS011;4358;42.100;25.222;2023-05-23T11:54:03;4.67;;;3.20;;
8640;SDS011;4358;42.100;25.222;2023-05-23T11:56:31;3.13;;;2.90;;
8640;SDS011;4358;42.100;25.222;2023-05-23T11:59:05;7.03;;;3.47;;
8640;SDS011;4358;42.100;25.222;2023-05-23T12:01:32;3.63;;;3.13;;
8640;SDS011;4358;42.100;25.222;2023-05-23T12:04:07;2.90;;;2.70;;
8640;SDS011;4358;42.100;25.222;2023-05-23T12:06:36;5.67;;;3.10;;
8640;SDS011;4358;42.100;25.222;2023-05-23T12:09:05;6.17;;;3.20;;
8640;SDS011;4358;42.100;25.222;2023-05-23T12:11:32;3.30;;;3.00;;
8640;SDS011;4358;42.100;25.222;2023-05-23T12:13:58;3.97;;;3.10;;
8640;SDS011;4358;42.100;25.222;2023-05-23T12:16:32;4.43;;;3.37;;
8640;SDS011;4358;42.100;25.222;2023-05-23T12:18:59;3.80;;;3.10;;
8640;SDS011;4358;42.100;25.222;2023-05-23T12:21:39;4.23;;;2.60;;
8640;SDS011;4358;42.100;25.222;2023-05-23T12:24:13;2.80;;;2.60;;
8640;SDS011;4358;42.100;25.222;2023-05-23T12:26:45;3.33;;;2.80;;
8640;SDS011;4358;42.100;25.222;2023-05-23T12:29:12;3.33;;;2.90;;
8640;SDS011;4358;42.100;25.222;2023-05-23T12:31:41;7.67;;;3.10;;
8640;SDS011;4358;42.100;25.222;2023-05-23T12:34:09;3.43;;;2.77;;
8640;SDS011;4358;42.100;25.222;2023-05-23T12:36:36;4.23;;;3.10;;
8640;SDS011;4358;42.100;25.222;2023-05-23T12:39:04;3.33;;;2.50;;
8640;SDS011;4358;42.100;25.222;2023-05-23T12:41:32;4.87;;;2.73;;
8640;SDS011;4358;42.100;25.222;2023-05-23T12:43:59;3.90;;;2.47;;
8640;SDS011;4358;42.100;25.222;2023-05-23T12:46:26;2.70;;;2.30;;
8640;SDS011;4358;42.100;25.222;2023-05-23T12:48:54;2.47;;;2.27;;
8640;SDS011;4358;42.100;25.222;2023-05-23T12:51:21;3.07;;;2.47;;
8640;SDS011;4358;42.100;25.222;2023-05-23T12:53:48;3.53;;;2.70;;
8640;SDS011;4358;42.100;25.222;2023-05-23T12:56:16;4.37;;;2.63;;
8640;SDS011;4358;42.100;25.222;2023-05-23T12:58:43;12.93;;;3.47;;
8640;SDS011;4358;42.100;25.222;2023-05-23T13:01:10;2.70;;;2.50;;
8640;SDS011;4358;42.100;25.222;2023-05-23T13:03:36;5.23;;;2.50;;
8640;SDS011;4358;42.100;25.222;2023-05-23T13:06:05;3.90;;;2.50;;
8640;SDS011;4358;42.100;25.222;2023-05-23T13:08:32;3.77;;;2.70;;
8640;SDS011;4358;42.100;25.222;2023-05-23T13:10:59;4.83;;;2.50;;
8640;SDS011;4358;42.100;25.222;2023-05-23T13:13:26;3.03;;;2.53;;
8640;SDS011;4358;42.100;25.222;2023-05-23T13:15:53;3.80;;;2.73;;
8640;SDS011;4358;42.100;25.222;2023-05-23T13:18:19;3.63;;;2.87;;
8640;SDS011;4358;42.100;25.222;2023-05-23T13:20:46;2.57;;;2.37;;
8640;SDS011;4358;42.100;25.222;2023-05-23T13:23:14;3.37;;;2.70;;
8640;SDS011;4358;42.100;25.222;2023-05-23T13:25:41;3.90;;;2.90;;
8640;SDS011;4358;42.100;25.222;2023-05-23T13:28:08;3.93;;;2.47;;
8640;SDS011;4358;42.100;25.222;2023-05-23T13:30:35;3.23;;;2.67;;
8640;SDS011;4358;42.100;25.222;2023-05-23T13:33:02;4.57;;;3.00;;
8640;SDS011;4358;42.100;25.222;2023-05-23T13:35:29;3.27;;;2.90;;
8640;SDS011;4358;42.100;25.222;2023-05-23T13:37:56;3.07;;;2.67;;
8640;SDS011;4358;42.100;25.222;2023-05-23T13:40:24;7.03;;;3.10;;
8640;SDS011;4358;42.100;25.222;2023-05-23T13:42:51;3.90;;;3.60;;
8640;SDS011;4358;42.100;25.222;2023-05-23T13:45:18;4.00;;;3.17;;
8640;SDS011;4358;42.100;25.222;2023-05-23T13:47:46;5.43;;;3.53;;
8640;SDS011;4358;42.100;25.222;2023-05-23T13:50:13;3.53;;;3.13;;
8640;SDS011;4358;42.100;25.222;2023-05-23T13:52:40;3.30;;;2.90;;
8640;SDS011;4358;42.100;25.222;2023-05-23T13:55:07;5.13;;;3.13;;
8640;SDS011;4358;42.100;25.222;2023-05-23T13:57:36;5.00;;;3.70;;
8640;SDS011;4358;42.100;25.222;2023-05-23T14:00:03;10.43;;;4.20;;
8640;SDS011;4358;42.100;25.222;2023-05-23T14:02:32;3.53;;;3.23;;
8640;SDS011;4358;42.100;25.222;2023-05-23T14:04:59;6.70;;;3.37;;
8640;SDS011;4358;42.100;25.222;2023-05-23T14:07:26;3.67;;;3.20;;
8640;SDS011;4358;42.100;25.222;2023-05-23T14:09:53;5.97;;;3.47;;
8640;SDS011;4358;42.100;25.222;2023-05-23T14:12:20;3.80;;;3.50;;
8640;SDS011;4358;42.100;25.222;2023-05-23T14:14:48;4.83;;;2.80;;
8640;SDS011;4358;42.100;25.222;2023-05-23T14:17:15;4.67;;;2.93;;
8640;SDS011;4358;42.100;25.222;2023-05-23T14:19:42;3.20;;;2.90;;
8640;SDS011;4358;42.100;25.222;2023-05-23T14:22:09;3.40;;;3.10;;
8640;SDS011;4358;42.100;25.222;2023-05-23T14:24:36;3.60;;;3.20;;
8640;SDS011;4358;42.100;25.222;2023-05-23T14:27:02;4.20;;;3.00;;
8640;SDS011;4358;42.100;25.222;2023-05-23T14:29:29;4.57;;;3.10;;
8640;SDS011;4358;42.100;25.222;2023-05-23T14:31:57;6.17;;;3.20;;
8640;SDS011;4358;42.100;25.222;2023-05-23T14:34:24;4.83;;;3.10;;
8640;SDS011;4358;42.100;25.222;2023-05-23T14:36:51;5.00;;;2.87;;
8640;SDS011;4358;42.100;25.222;2023-05-23T14:39:19;3.40;;;3.03;;
8640;SDS011;4358;42.100;25.222;2023-05-23T14:41:46;3.93;;;2.70;;
8640;SDS011;4358;42.100;25.222;2023-05-23T14:44:12;5.90;;;3.10;;
8640;SDS011;4358;42.100;25.222;2023-05-23T14:46:39;7.57;;;2.97;;
8640;SDS011;4358;42.100;25.222;2023-05-23T14:49:14;8.57;;;3.13;;
8640;SDS011;4358;42.100;25.222;2023-05-23T14:51:40;3.10;;;2.80;;
8640;SDS011;4358;42.100;25.222;2023-05-23T14:54:07;4.47;;;3.00;;
8640;SDS011;4358;42.100;25.222;2023-05-23T14:56:34;3.93;;;3.33;;
8640;SDS011;4358;42.100;25.222;2023-05-23T14:59:02;3.23;;;2.93;;
8640;SDS011;4358;42.100;25.222;2023-05-23T15:01:28;3.37;;;2.90;;
8640;SDS011;4358;42.100;25.222;2023-05-23T15:03:55;3.57;;;3.00;;
8640;SDS011;4358;42.100;25.222;2023-05-23T15:06:24;3.27;;;3.00;;
8640;SDS011;4358;42.100;25.222;2023-05-23T15:08:50;3.80;;;3.40;;
8640;SDS011;4358;42.100;25.222;2023-05-23T15:11:17;3.63;;;3.10;;